Time;durP1;ratioP1;P1;durP2;ratioP2;P2;SDS_P1;SDS_P2;PMS_P1;PMS_P2;Temp;Humidity;BMP_temperature;BMP_pressure;BME280_temperature;BME280_humidity;BME280_pressure;Samples;Min_cycle;Max_cycle;Signal;HPM_P1;HPM_P2
2021/08/20 00:02:07;;;;;;;19.30;9.93;;;;;21.10;99880.00;;;;5068782;28;20070;-80
2021/08/20 00:04:34;;;;;;;16.10;9.68;;;;;21.10;99868.00;;;;5068697;28;20032;-78
2021/08/20 00:07:00;;;;;;;18.50;9.55;;;;;21.10;99866.00;;;;5068576;28;20380;-77
2021/08/20 00:09:28;;;;;;;21.98;9.02;;;;;21.10;99872.00;;;;5069383;28;20047;-78
2021/08/20 00:11:54;;;;;;;19.40;9.68;;;;;21.10;99864.00;;;;5069389;28;20051;-79
2021/08/20 00:14:21;;;;;;;16.98;9.40;;;;;21.00;99877.00;;;;5068151;28;20079;-79
2021/08/20 00:16:48;;;;;;;22.33;9.43;;;;;21.10;99870.00;;;;5068336;28;20058;-77
2021/08/20 00:19:15;;;;;;;22.08;9.25;;;;;21.00;99876.00;;;;5069696;28;20107;-76
2021/08/20 00:21:43;;;;;;;23.88;9.60;;;;;20.90;99884.00;;;;5070191;28;20427;-79
2021/08/20 00:24:14;;;;;;;22.67;9.93;;;;;20.90;99873.00;;;;5069954;28;20031;-80
2021/08/20 00:26:42;;;;;;;19.52;9.40;;;;;20.80;99886.00;;;;5067216;28;20479;-81
2021/08/20 00:29:09;;;;;;;21.95;9.73;;;;;20.70;99875.00;;;;5067373;28;20483;-78
2021/08/20 00:31:36;;;;;;;23.67;9.25;;;;;20.80;99898.00;;;;5068435;28;20028;-78
2021/08/20 00:34:03;;;;;;;14.68;8.45;;;;;20.80;99895.00;;;;5066811;28;20070;-82
2021/08/20 00:36:30;;;;;;;16.60;9.30;;;;;20.70;99879.00;;;;5067138;28;20766;-78
2021/08/20 00:38:56;;;;;;;24.63;9.45;;;;;20.70;99892.00;;;;5066974;28;20060;-82
2021/08/20 00:41:24;;;;;;;18.48;9.05;;;;;20.70;99888.00;;;;5066751;28;20090;-81
2021/08/20 00:43:50;;;;;;;16.48;9.90;;;;;20.80;99890.00;;;;5066251;28;20068;-77
2021/08/20 00:46:17;;;;;;;20.98;9.77;;;;;20.70;99884.00;;;;5066335;28;20059;-77
2021/08/20 00:48:43;;;;;;;23.92;10.05;;;;;20.70;99867.00;;;;5067300;28;20067;-78
2021/08/20 00:51:19;;;;;;;20.52;9.20;;;;;20.70;99902.00;;;;5067772;28;20020;-81
2021/08/20 00:53:49;;;;;;;19.73;9.93;;;;;20.70;99899.00;;;;5067113;28;20037;-77
2021/08/20 00:56:17;;;;;;;18.13;9.30;;;;;20.70;99890.00;;;;5066532;28;20032;-79
2021/08/20 00:58:43;;;;;;;21.05;9.48;;;;;20.70;99893.00;;;;5066240;28;20757;-78
2021/08/20 01:01:10;;;;;;;24.27;10.48;;;;;20.60;99887.00;;;;5066864;28;20032;-78
2021/08/20 01:03:38;;;;;;;19.65;10.02;;;;;20.60;99884.00;;;;5066734;28;20029;-79
2021/08/20 01:06:06;;;;;;;19.90;10.13;;;;;20.50;99883.00;;;;5066411;28;20062;-78
2021/08/20 01:08:34;;;;;;;18.55;10.32;;;;;20.50;99894.00;;;;5066654;28;20035;-81
2021/08/20 01:11:03;;;;;;;19.15;11.27;;;;;20.50;99886.00;;;;5065250;28;20036;-79
2021/08/20 01:13:41;;;;;;;19.35;10.20;;;;;20.60;99872.00;;;;5066325;28;20090;-78
2021/08/20 01:16:09;;;;;;;22.50;9.93;;;;;20.60;99882.00;;;;5071510;28;20032;-77
2021/08/20 01:18:38;;;;;;;17.63;10.50;;;;;20.60;99879.00;;;;5070761;28;20082;-79
2021/08/20 01:21:11;;;;;;;22.25;10.52;;;;;20.50;99895.00;;;;5070219;28;20066;-82
2021/08/20 01:23:39;;;;;;;22.17;11.25;;;;;20.30;99878.00;;;;5069848;28;20093;-78
2021/08/20 01:26:06;;;;;;;21.42;10.65;;;;;20.20;99888.00;;;;5070304;28;20024;-80
2021/08/20 01:28:33;;;;;;;27.42;11.30;;;;;20.10;99890.00;;;;5070030;28;20032;-77
2021/08/20 01:31:09;;;;;;;22.35;10.45;;;;;20.20;99894.00;;;;5070479;28;20082;-77
2021/08/20 01:33:36;;;;;;;18.80;10.25;;;;;20.20;99895.00;;;;5070358;28;20016;-78
2021/08/20 01:36:02;;;;;;;18.90;11.07;;;;;20.10;99892.00;;;;5069490;28;20036;-81
2021/08/20 01:38:31;;;;;;;19.83;10.80;;;;;20.10;99886.00;;;;5069790;28;20029;-79
2021/08/20 01:40:58;;;;;;;22.23;11.10;;;;;20.10;99881.00;;;;5070509;28;20021;-80
2021/08/20 01:43:24;;;;;;;20.42;10.60;;;;;20.20;99899.00;;;;5070317;28;20467;-81
2021/08/20 01:45:52;;;;;;;22.13;10.63;;;;;20.30;99906.00;;;;5069029;28;20016;-78
2021/08/20 01:48:18;;;;;;;13.90;9.32;;;;;20.30;99890.00;;;;5069595;28;20042;-78
2021/08/20 01:50:45;;;;;;;23.15;10.95;;;;;20.30;99881.00;;;;5066690;28;20499;-77
2021/08/20 01:53:15;;;;;;;22.35;10.60;;;;;20.40;99887.00;;;;5068093;28;20027;-77
2021/08/20 01:55:44;;;;;;;22.98;10.80;;;;;20.50;99876.00;;;;5069686;28;20032;-80
2021/08/20 01:58:11;;;;;;;18.42;10.57;;;;;20.50;99890.00;;;;5069267;28;20086;-78
2021/08/20 02:00:38;;;;;;;21.38;10.52;;;;;20.70;99875.00;;;;5069727;28;20029;-80
2021/08/20 02:03:05;;;;;;;24.95;10.77;;;;;20.80;99886.00;;;;5069102;28;20138;-76
2021/08/20 02:05:33;;;;;;;22.48;11.00;;;;;20.80;99898.00;;;;5068826;28;20107;-77
2021/08/20 02:08:00;;;;;;;24.65;11.27;;;;;21.00;99877.00;;;;5070300;28;20043;-79
2021/08/20 02:10:27;;;;;;;15.32;10.48;;;;;21.20;99887.00;;;;5069817;28;20391;-78
2021/08/20 02:12:53;;;;;;;22.38;10.70;;;;;21.00;99869.00;;;;5069861;28;20025;-78
2021/08/20 02:15:20;;;;;;;18.27;10.85;;;;;21.00;99887.00;;;;5069077;28;20089;-79
2021/08/20 02:17:46;;;;;;;23.25;10.93;;;;;20.90;99884.00;;;;5069552;28;20028;-78
2021/08/20 02:20:13;;;;;;;17.23;10.63;;;;;20.70;99872.00;;;;5067660;28;20388;-78
2021/08/20 02:22:40;;;;;;;20.17;9.82;;;;;20.80;99861.00;;;;5069115;28;20058;-77
2021/08/20 02:25:07;;;;;;;24.50;10.90;;;;;20.80;99861.00;;;;5068650;28;20559;-78
2021/08/20 02:27:33;;;;;;;26.58;11.13;;;;;20.70;99886.00;;;;5068962;28;20040;-76
2021/08/20 02:30:00;;;;;;;25.17;11.55;;;;;20.50;99874.00;;;;5069189;28;20025;-80
2021/08/20 02:32:26;;;;;;;21.90;10.63;;;;;20.50;99861.00;;;;5068929;28;20032;-77
2021/08/20 02:34:53;;;;;;;16.95;10.85;;;;;20.60;99858.00;;;;5069606;28;20480;-76
2021/08/20 02:37:19;;;;;;;21.13;10.45;;;;;20.50;99858.00;;;;5069268;28;20029;-78
2021/08/20 02:39:46;;;;;;;18.58;11.27;;;;;20.40;99851.00;;;;5069182;28;20024;-78
2021/08/20 02:42:12;;;;;;;20.40;10.98;;;;;20.40;99862.00;;;;5068751;28;20037;-77
2021/08/20 02:44:39;;;;;;;16.75;11.15;;;;;20.40;99852.00;;;;5068046;28;20103;-78
2021/08/20 02:47:06;;;;;;;20.08;10.57;;;;;20.50;99843.00;;;;5068712;28;20511;-78
2021/08/20 02:49:32;;;;;;;24.20;10.52;;;;;20.70;99851.00;;;;5068681;28;20103;-79
2021/08/20 02:51:59;;;;;;;20.02;10.90;;;;;20.80;99859.00;;;;5068666;28;20511;-76
2021/08/20 02:54:25;;;;;;;27.77;12.02;;;;;20.90;99856.00;;;;5068791;28;20060;-76
2021/08/20 02:56:52;;;;;;;22.65;11.10;;;;;20.80;99841.00;;;;5066930;28;20119;-78
2021/08/20 02:59:18;;;;;;;22.27;11.73;;;;;20.70;99830.00;;;;5068580;28;20369;-78
2021/08/20 03:01:48;;;;;;;27.67;11.80;;;;;20.60;99839.00;;;;5069522;28;20561;-79
2021/08/20 03:04:16;;;;;;;18.60;10.75;;;;;20.50;99847.00;;;;5068885;28;20040;-78
2021/08/20 03:06:43;;;;;;;21.00;11.32;;;;;20.40;99847.00;;;;5068573;28;20555;-78
2021/08/20 03:09:11;;;;;;;20.85;11.05;;;;;20.40;99817.00;;;;5068513;28;20086;-77
2021/08/20 03:11:38;;;;;;;20.63;11.40;;;;;20.70;99831.00;;;;5067996;28;20556;-77
2021/08/20 03:14:05;;;;;;;15.63;10.88;;;;;20.60;99838.00;;;;5068068;28;20031;-77
2021/08/20 03:16:32;;;;;;;21.75;10.85;;;;;20.60;99824.00;;;;5068130;28;20463;-78
2021/08/20 03:18:58;;;;;;;26.17;11.00;;;;;20.60;99812.00;;;;5067955;28;20036;-78
2021/08/20 03:21:25;;;;;;;21.60;11.70;;;;;20.70;99829.00;;;;5067951;28;20491;-77
2021/08/20 03:23:52;;;;;;;22.40;10.95;;;;;20.60;99807.00;;;;5068420;28;20029;-79
2021/08/20 03:26:18;;;;;;;26.50;11.73;;;;;20.70;99792.00;;;;5067728;28;20089;-77
2021/08/20 03:28:45;;;;;;;21.70;10.38;;;;;20.70;99811.00;;;;5068344;28;20028;-80
2021/08/20 03:31:11;;;;;;;20.60;10.70;;;;;20.90;99802.00;;;;5067054;28;20033;-79
2021/08/20 03:33:38;;;;;;;20.42;10.05;;;;;20.90;99810.00;;;;5066164;28;20033;-76
2021/08/20 03:36:05;;;;;;;18.48;10.95;;;;;20.90;99805.00;;;;5067805;28;20039;-78
2021/08/20 03:38:32;;;;;;;14.93;10.73;;;;;20.70;99813.00;;;;5066839;28;20408;-78
2021/08/20 03:40:58;;;;;;;21.92;11.15;;;;;20.70;99826.00;;;;5068103;28;20060;-75
2021/08/20 03:43:25;;;;;;;24.00;10.77;;;;;20.70;99798.00;;;;5067360;28;20038;-78
2021/08/20 03:45:51;;;;;;;28.55;11.95;;;;;20.80;99807.00;;;;5067580;28;20082;-76
2021/08/20 03:48:18;;;;;;;24.50;10.70;;;;;20.80;99817.00;;;;5066847;28;20058;-78
2021/08/20 03:50:44;;;;;;;23.13;10.85;;;;;20.70;99803.00;;;;5067241;28;20434;-75
2021/08/20 03:53:11;;;;;;;18.73;10.05;;;;;20.70;99800.00;;;;5067002;28;20063;-78
2021/08/20 03:55:37;;;;;;;26.88;10.40;;;;;20.70;99830.00;;;;5067566;28;20040;-75
2021/08/20 03:58:04;;;;;;;17.48;11.13;;;;;20.80;99831.00;;;;5067289;28;20017;-79
2021/08/20 04:00:32;;;;;;;23.40;10.40;;;;;20.90;99831.00;;;;5067675;28;20032;-76
2021/08/20 04:02:58;;;;;;;16.75;10.63;;;;;21.00;99817.00;;;;5067463;28;20025;-77
2021/08/20 04:05:25;;;;;;;17.17;10.35;;;;;21.10;99813.00;;;;5067339;28;20111;-76
2021/08/20 04:07:51;;;;;;;17.10;10.13;;;;;21.20;99807.00;;;;5067037;28;20029;-79
2021/08/20 04:10:18;;;;;;;28.02;10.85;;;;;21.10;99830.00;;;;5066826;28;20551;-77
2021/08/20 04:12:45;;;;;;;17.65;10.30;;;;;21.10;99810.00;;;;5067451;28;20032;-78
2021/08/20 04:15:11;;;;;;;14.32;10.23;;;;;21.40;99817.00;;;;5067252;28;20024;-77
2021/08/20 04:17:38;;;;;;;26.13;10.38;;;;;21.50;99807.00;;;;5066880;28;20021;-75
2021/08/20 04:20:05;;;;;;;21.88;9.82;;;;;21.70;99801.00;;;;5066742;28;20044;-79
2021/08/20 04:22:32;;;;;;;17.23;9.52;;;;;21.50;99823.00;;;;5067981;28;20043;-76
2021/08/20 04:24:58;;;;;;;17.98;9.77;;;;;21.60;99823.00;;;;5067171;28;20151;-79
2021/08/20 04:27:25;;;;;;;18.40;9.50;;;;;21.80;99823.00;;;;5066516;28;20024;-76
2021/08/20 04:29:51;;;;;;;23.58;9.68;;;;;22.20;99802.00;;;;5067256;28;20021;-78
2021/08/20 04:32:18;;;;;;;25.95;10.18;;;;;22.20;99798.00;;;;5066739;28;20068;-78
2021/08/20 04:34:44;;;;;;;21.77;10.70;;;;;22.10;99792.00;;;;5067026;28;20035;-78
2021/08/20 04:37:11;;;;;;;25.02;10.55;;;;;22.10;99811.00;;;;5067121;28;20071;-78
2021/08/20 04:39:37;;;;;;;18.42;9.38;;;;;22.30;99787.00;;;;5067035;28;20032;-76
2021/08/20 04:42:04;;;;;;;18.30;9.77;;;;;22.20;99802.00;;;;5066401;28;20036;-78
2021/08/20 04:44:31;;;;;;;18.45;10.18;;;;;22.10;99787.00;;;;5066432;28;20024;-77
2021/08/20 04:46:58;;;;;;;20.80;9.75;;;;;22.10;99794.00;;;;5066632;28;20139;-79
2021/08/20 04:49:24;;;;;;;18.65;10.32;;;;;22.10;99795.00;;;;5067124;28;20020;-77
2021/08/20 04:51:51;;;;;;;21.83;10.02;;;;;22.10;99794.00;;;;5065605;28;20403;-76
2021/08/20 04:54:17;;;;;;;21.67;10.68;;;;;21.90;99788.00;;;;5066314;28;20036;-80
2021/08/20 04:56:44;;;;;;;16.15;9.55;;;;;21.90;99785.00;;;;5066606;28;20028;-77
2021/08/20 04:59:11;;;;;;;19.73;9.60;;;;;22.10;99784.00;;;;5066826;28;20032;-75
2021/08/20 05:01:38;;;;;;;33.78;11.40;;;;;22.10;99784.00;;;;5066928;28;20028;-79
2021/08/20 05:04:04;;;;;;;28.00;11.23;;;;;22.10;99780.00;;;;5066523;28;20024;-80
2021/08/20 05:06:32;;;;;;;16.98;9.88;;;;;21.90;99781.00;;;;5066402;28;20776;-77
2021/08/20 05:08:58;;;;;;;19.63;10.02;;;;;21.90;99772.00;;;;5065912;28;20108;-80
2021/08/20 05:11:25;;;;;;;18.02;10.05;;;;;21.90;99778.00;;;;5066390;28;20107;-79
2021/08/20 05:13:51;;;;;;;20.73;9.95;;;;;21.90;99767.00;;;;5067139;28;20032;-79
2021/08/20 05:16:18;;;;;;;15.30;9.95;;;;;21.90;99792.00;;;;5067421;28;20368;-78
2021/08/20 05:18:44;;;;;;;17.27;9.77;;;;;21.90;99789.00;;;;5066303;28;20111;-79
2021/08/20 05:21:11;;;;;;;21.98;10.52;;;;;21.90;99793.00;;;;5066661;28;20107;-79
2021/08/20 05:23:37;;;;;;;23.05;10.85;;;;;21.90;99786.00;;;;5066135;28;20784;-78
2021/08/20 05:26:04;;;;;;;19.52;10.57;;;;;21.80;99772.00;;;;5066624;28;20032;-80
2021/08/20 05:28:30;;;;;;;25.67;10.40;;;;;21.60;99768.00;;;;5066526;28;20029;-78
2021/08/20 05:30:57;;;;;;;22.20;10.05;;;;;21.60;99767.00;;;;5065924;28;20032;-78
2021/08/20 05:33:24;;;;;;;21.75;10.95;;;;;21.60;99767.00;;;;5066385;28;20052;-80
2021/08/20 05:35:50;;;;;;;19.13;10.38;;;;;21.60;99762.00;;;;5066074;28;20036;-78
2021/08/20 05:38:17;;;;;;;20.90;11.00;;;;;21.60;99761.00;;;;5065993;28;20107;-78
2021/08/20 05:40:43;;;;;;;18.58;9.63;;;;;21.60;99756.00;;;;5066458;28;20391;-78
2021/08/20 05:43:10;;;;;;;23.45;10.65;;;;;21.50;99757.00;;;;5067084;28;20510;-78
2021/08/20 05:45:37;;;;;;;26.08;10.10;;;;;21.50;99748.00;;;;5066862;28;20029;-80
2021/08/20 05:48:06;;;;;;;33.75;11.35;;;;;21.60;99740.00;;;;5065709;28;20057;-79
2021/08/20 05:50:33;;;;;;;16.02;10.70;;;;;21.50;99763.00;;;;5066156;28;20032;-77
2021/08/20 05:53:00;;;;;;;19.75;11.05;;;;;21.40;99731.00;;;;5066529;28;20105;-79
2021/08/20 05:55:26;;;;;;;15.23;10.98;;;;;21.70;99726.00;;;;5066336;28;20034;-77
2021/08/20 05:57:54;;;;;;;21.17;10.57;;;;;21.40;99745.00;;;;5065915;28;20115;-79
2021/08/20 06:00:20;;;;;;;19.00;10.93;;;;;21.40;99742.00;;;;5066447;28;20119;-78
2021/08/20 06:02:47;;;;;;;16.60;11.18;;;;;21.30;99730.00;;;;5069610;28;20407;-77
2021/08/20 06:05:14;;;;;;;21.48;11.25;;;;;21.30;99730.00;;;;5068919;28;20082;-80
2021/08/20 06:07:40;;;;;;;20.83;10.27;;;;;21.50;99726.00;;;;5069957;28;20510;-77
2021/08/20 06:10:08;;;;;;;24.05;12.00;;;;;21.30;99748.00;;;;5070393;28;20057;-78
2021/08/20 06:12:35;;;;;;;20.52;10.63;;;;;21.50;99747.00;;;;5069776;28;20174;-78
2021/08/20 06:15:02;;;;;;;22.45;11.88;;;;;21.40;99748.00;;;;5069458;28;20025;-79
2021/08/20 06:17:28;;;;;;;16.42;11.10;;;;;21.40;99741.00;;;;5069354;28;20045;-79
2021/08/20 06:19:55;;;;;;;16.38;11.05;;;;;21.30;99732.00;;;;5069398;28;20032;-77
2021/08/20 06:22:22;;;;;;;21.83;11.10;;;;;21.30;99729.00;;;;5069292;28;20061;-77
2021/08/20 06:24:48;;;;;;;19.30;11.52;;;;;21.40;99736.00;;;;5068739;28;20025;-77
2021/08/20 06:27:15;;;;;;;24.42;12.00;;;;;21.40;99733.00;;;;5069338;28;20032;-79
2021/08/20 06:29:43;;;;;;;20.90;11.40;;;;;21.60;99727.00;;;;5069039;28;20020;-79
2021/08/20 06:32:10;;;;;;;19.52;11.35;;;;;21.60;99705.00;;;;5068930;28;20032;-76
2021/08/20 06:34:36;;;;;;;17.35;11.30;;;;;21.40;99719.00;;;;5070351;28;20130;-78
2021/08/20 06:37:03;;;;;;;32.17;12.00;;;;;21.30;99722.00;;;;5068827;28;20020;-78
2021/08/20 06:39:30;;;;;;;16.75;11.15;;;;;21.30;99705.00;;;;5068907;28;20478;-76
2021/08/20 06:41:56;;;;;;;24.90;11.38;;;;;21.10;99723.00;;;;5068876;28;20048;-79
2021/08/20 06:44:23;;;;;;;16.30;10.38;;;;;21.20;99710.00;;;;5068814;28;20146;-76
2021/08/20 06:46:50;;;;;;;17.10;11.45;;;;;21.20;99707.00;;;;5068756;28;20048;-78
2021/08/20 06:49:16;;;;;;;20.90;11.02;;;;;21.20;99694.00;;;;5069066;28;20025;-77
2021/08/20 06:51:43;;;;;;;22.20;11.82;;;;;21.20;99699.00;;;;5068490;28;20032;-78
2021/08/20 06:54:09;;;;;;;21.70;11.43;;;;;21.20;99698.00;;;;5068168;28;20585;-80
2021/08/20 06:56:36;;;;;;;19.33;11.73;;;;;20.90;99680.00;;;;5068635;28;20054;-77
2021/08/20 06:59:02;;;;;;;18.58;11.57;;;;;21.10;99698.00;;;;5068273;28;20075;-76
2021/08/20 07:01:29;;;;;;;25.05;11.75;;;;;21.00;99667.00;;;;5068925;28;20056;-78
2021/08/20 07:03:58;;;;;;;23.02;12.02;;;;;21.40;99673.00;;;;5068100;28;20036;-77
2021/08/20 07:06:27;;;;;;;25.35;12.32;;;;;21.50;99688.00;;;;5068468;28;20740;-78
2021/08/20 07:08:55;;;;;;;24.08;11.82;;;;;21.20;99679.00;;;;5067714;28;20036;-76
2021/08/20 07:11:23;;;;;;;17.83;10.75;;;;;21.40;99654.00;;;;5068313;28;20028;-77
2021/08/20 07:13:50;;;;;;;27.42;11.32;;;;;21.70;99677.00;;;;5068005;28;20136;-77
2021/08/20 07:16:17;;;;;;;23.48;11.40;;;;;21.60;99687.00;;;;5068984;28;20548;-78
2021/08/20 07:18:44;;;;;;;26.27;12.13;;;;;21.10;99654.00;;;;5068661;28;20028;-75
2021/08/20 07:21:11;;;;;;;20.75;11.77;;;;;21.10;99676.00;;;;5068430;28;20514;-77
2021/08/20 07:23:38;;;;;;;27.40;11.23;;;;;21.60;99666.00;;;;5068573;28;20064;-78
2021/08/20 07:26:06;;;;;;;23.33;12.20;;;;;22.50;99692.00;;;;5068041;28;20044;-78
2021/08/20 07:28:34;;;;;;;21.50;12.70;;;;;22.90;99679.00;;;;5069744;28;20035;-79
2021/08/20 07:31:01;;;;;;;21.35;12.55;;;;;22.90;99693.00;;;;5069399;28;20131;-80
2021/08/20 07:33:28;;;;;;;23.17;12.50;;;;;22.60;99687.00;;;;5068040;28;20103;-79
2021/08/20 07:35:54;;;;;;;18.67;12.35;;;;;22.40;99689.00;;;;5067397;28;20024;-79
2021/08/20 07:38:21;;;;;;;25.70;12.65;;;;;22.00;99701.00;;;;5067940;28;20032;-76
2021/08/20 07:40:48;;;;;;;22.98;13.55;;;;;21.60;99719.00;;;;5067415;28;20036;-78
2021/08/20 07:43:14;;;;;;;25.00;14.55;;;;;21.40;99702.00;;;;5068023;28;20032;-77
2021/08/20 07:45:41;;;;;;;21.55;14.38;;;;;21.20;99711.00;;;;5068001;28;20400;-79
2021/08/20 07:48:09;;;;;;;26.08;15.00;;;;;20.90;99702.00;;;;5068152;28;20056;-79
2021/08/20 07:50:36;;;;;;;33.47;15.25;;;;;20.70;99710.00;;;;5067471;28;20020;-77
2021/08/20 07:53:02;;;;;;;28.00;16.70;;;;;20.60;99709.00;;;;5067948;28;20028;-76
2021/08/20 07:55:29;;;;;;;23.52;16.67;;;;;20.30;99701.00;;;;5067887;28;20052;-76
2021/08/20 07:57:56;;;;;;;34.50;17.88;;;;;20.20;99703.00;;;;5067060;28;20044;-80
2021/08/20 08:00:31;;;;;;;22.25;17.33;;;;;20.00;99704.00;;;;5067008;28;20024;-78
2021/08/20 08:02:58;;;;;;;22.90;17.30;;;;;19.90;99723.00;;;;5067823;28;20379;-80
2021/08/20 08:05:25;;;;;;;28.23;17.00;;;;;20.00;99746.00;;;;5067613;28;20028;-79
2021/08/20 08:07:55;;;;;;;23.90;17.35;;;;;20.00;99718.00;;;;5065558;28;20421;-79
2021/08/20 08:10:22;;;;;;;33.10;17.88;;;;;20.00;99754.00;;;;5067401;28;20086;-78
2021/08/20 08:12:50;;;;;;;28.35;19.20;;;;;19.90;99746.00;;;;5066961;28;20048;-78
2021/08/20 08:15:17;;;;;;;30.48;19.85;;;;;19.80;99733.00;;;;5066921;28;20129;-79
2021/08/20 08:17:43;;;;;;;26.45;19.15;;;;;19.70;99757.00;;;;5067352;28;20032;-78
2021/08/20 08:20:13;;;;;;;26.95;19.27;;;;;19.60;99754.00;;;;5067331;28;20403;-77
2021/08/20 08:22:40;;;;;;;26.90;20.35;;;;;19.40;99767.00;;;;5067512;28;20023;-77
2021/08/20 08:25:07;;;;;;;31.67;22.10;;;;;19.20;99771.00;;;;5067783;28;20119;-78
2021/08/20 08:27:52;;;;;;;27.90;21.92;;;;;18.90;99786.00;;;;5067897;28;20032;-81
2021/08/20 08:30:19;;;;;;;33.28;21.75;;;;;18.80;99795.00;;;;5067942;28;20498;-79
2021/08/20 08:32:46;;;;;;;28.77;22.40;;;;;18.80;99807.00;;;;5067562;28;20037;-77
2021/08/20 08:35:12;;;;;;;30.48;22.38;;;;;18.60;99819.00;;;;5067173;28;20028;-78
2021/08/20 08:37:39;;;;;;;29.30;21.77;;;;;18.50;99808.00;;;;5067095;28;20028;-76
2021/08/20 08:40:07;;;;;;;25.85;21.45;;;;;18.40;99803.00;;;;5067744;28;20032;-77
2021/08/20 08:42:33;;;;;;;25.95;21.40;;;;;18.30;99832.00;;;;5067528;28;20115;-75
2021/08/20 08:45:02;;;;;;;28.50;22.52;;;;;18.30;99820.00;;;;5067165;28;20024;-76
2021/08/20 08:47:35;;;;;;;31.73;21.98;;;;;18.10;99836.00;;;;5067140;28;20098;-80
2021/08/20 08:50:07;;;;;;;31.70;22.65;;;;;18.00;99819.00;;;;5067566;28;20035;-78
2021/08/20 08:52:34;;;;;;;34.38;22.42;;;;;17.90;99830.00;;;;5066945;28;20032;-76
2021/08/20 08:55:03;;;;;;;31.85;22.15;;;;;17.90;99826.00;;;;5065889;28;20129;-79
2021/08/20 08:57:29;;;;;;;32.45;22.63;;;;;17.90;99847.00;;;;5067165;28;20406;-80
2021/08/20 08:59:57;;;;;;;29.08;23.45;;;;;17.90;99860.00;;;;5066885;28;20035;-77
2021/08/20 09:02:26;;;;;;;31.42;23.38;;;;;17.80;99871.00;;;;5067115;28;20494;-78
2021/08/20 09:05:05;;;;;;;33.40;22.67;;;;;17.80;99887.00;;;;5066953;28;20031;-78
2021/08/20 09:07:37;;;;;;;30.10;23.33;;;;;17.80;99858.00;;;;5067194;28;20036;-79
2021/08/20 09:10:12;;;;;;;27.85;21.88;;;;;17.80;99878.00;;;;5065300;28;20170;-79
2021/08/20 09:13:01;;;;;;;32.80;22.52;;;;;17.80;99872.00;;;;5066933;28;20028;-76
2021/08/20 09:15:32;;;;;;;26.48;23.13;;;;;17.70;99910.00;;;;5066348;28;20036;-77
2021/08/20 09:18:03;;;;;;;;;;;;;17.70;99937.00;;;;5067828;28;20075;-77
2021/08/20 09:20:34;;;;;;;31.92;24.00;;;;;17.60;99935.00;;;;5067015;28;20337;-80
2021/08/20 09:23:15;;;;;;;28.65;21.92;;;;;17.60;99923.00;;;;5066419;28;20056;-78
2021/08/20 09:25:45;;;;;;;29.23;23.33;;;;;17.60;99948.00;;;;5067351;28;20036;-79
2021/08/20 09:28:32;;;;;;;26.33;22.08;;;;;17.50;99955.00;;;;5066528;28;20499;-76
2021/08/20 09:31:00;;;;;;;28.55;22.52;;;;;17.40;99939.00;;;;5067416;28;20029;-79
2021/08/20 09:33:34;;;;;;;30.70;22.40;;;;;17.40;99944.00;;;;5066696;28;20072;-79
2021/08/20 09:36:10;;;;;;;34.47;21.63;;;;;17.30;99943.00;;;;5068324;28;20044;-80
2021/08/20 09:38:59;;;;;;;30.15;23.20;;;;;17.30;99974.00;;;;5067424;28;20035;-77
2021/08/20 09:41:31;;;;;;;28.55;22.65;;;;;17.40;99982.00;;;;5070778;28;20060;-80
2021/08/20 09:44:02;;;;;;;28.80;22.60;;;;;17.40;99973.00;;;;5069339;28;20495;-79
2021/08/20 09:46:43;;;;;;;30.45;22.42;;;;;17.40;99989.00;;;;5069908;28;20143;-78
2021/08/20 09:49:10;;;;;;;28.85;22.17;;;;;17.40;99981.00;;;;5070716;28;20144;-78
2021/08/20 09:51:48;;;;;;;28.45;23.58;;;;;17.40;100017.00;;;;5069113;28;20025;-74
2021/08/20 09:54:30;;;;;;;31.55;23.13;;;;;17.40;100027.00;;;;5069500;28;20098;-79
2021/08/20 09:56:58;;;;;;;30.85;22.98;;;;;17.40;100069.00;;;;5070084;28;20025;-81
2021/08/20 09:59:29;;;;;;;36.63;24.17;;;;;17.40;100114.00;;;;5069005;28;20115;-77
2021/08/20 10:01:58;;;;;;;31.35;24.20;;;;;17.50;100144.00;;;;5070080;28;20047;-75
2021/08/20 10:04:27;;;;;;;28.27;22.30;;;;;17.60;100172.00;;;;5069661;28;20024;-78
2021/08/20 10:06:55;;;;;;;32.08;22.23;;;;;17.60;100176.00;;;;5070138;28;20032;-78
2021/08/20 10:09:23;;;;;;;31.48;22.33;;;;;17.50;100174.00;;;;5070017;28;20395;-79
2021/08/20 10:11:52;;;;;;;31.33;23.17;;;;;17.40;100190.00;;;;5070007;28;20036;-79
2021/08/20 10:14:26;;;;;;;27.23;23.58;;;;;17.40;100241.00;;;;5069358;28;20036;-76
2021/08/20 10:16:53;;;;;;;32.45;23.55;;;;;17.30;100241.00;;;;5069985;28;20033;-75
2021/08/20 10:19:19;;;;;;;30.02;23.98;;;;;17.30;100233.00;;;;5069125;28;20029;-73
2021/08/20 10:21:46;;;;;;;28.40;20.92;;;;;17.20;100246.00;;;;5069561;28;20085;-75
2021/08/20 10:24:15;;;;;;;32.85;23.67;;;;;17.20;100286.00;;;;5069092;28;20029;-75
2021/08/20 10:26:54;;;;;;;32.08;22.27;;;;;17.20;100295.00;;;;5069162;28;20044;-75
2021/08/20 10:29:26;;;;;;;32.22;19.85;;;;;17.20;100262.00;;;;5069032;28;20066;-75
2021/08/20 10:31:53;;;;;;;31.08;21.25;;;;;17.10;100316.00;;;;5068857;28;20162;-74
2021/08/20 10:34:39;;;;;;;30.88;20.15;;;;;17.10;100353.00;;;;5069584;28;20025;-75
2021/08/20 10:37:26;;;;;;;23.80;18.27;;;;;17.10;100362.00;;;;5068402;28;20058;-78
2021/08/20 10:39:54;;;;;;;27.00;17.42;;;;;17.00;100393.00;;;;5068985;28;20029;-76
2021/08/20 10:42:41;;;;;;;34.40;16.20;;;;;16.90;100418.00;;;;5069395;28;20794;-77
2021/08/20 10:45:12;;;;;;;22.17;14.48;;;;;16.90;100400.00;;;;5069186;28;20032;-76
2021/08/20 10:47:40;;;;;;;;;;;;;16.90;100437.00;;;;5069701;28;20063;-79
2021/08/20 10:50:17;;;;;;;18.30;11.07;;;;;16.90;100439.00;;;;5069372;28;19920;-77
2021/08/20 10:52:46;;;;;;;18.80;11.32;;;;;16.90;100497.00;;;;5069027;28;20078;-75
2021/08/20 10:55:13;;;;;;;17.55;8.40;;;;;17.00;100474.00;;;;5068647;28;20024;-78
2021/08/20 10:57:42;;;;;;;16.27;8.90;;;;;17.00;100487.00;;;;5068845;28;20443;-76
2021/08/20 11:00:38;;;;;;;18.38;8.68;;;;;17.00;100520.00;;;;5069468;28;20395;-76
2021/08/20 11:03:08;;;;;;;19.33;7.22;;;;;17.10;100507.00;;;;5068766;28;20039;-77
2021/08/20 11:05:41;;;;;;;15.57;8.73;;;;;17.20;100512.00;;;;5068047;28;20032;-78
2021/08/20 11:08:29;;;;;;;12.98;7.57;;;;;17.20;100563.00;;;;5069148;28;20039;-78
2021/08/20 11:10:57;;;;;;;13.68;8.55;;;;;17.30;100554.00;;;;5068790;28;20047;-79
2021/08/20 11:13:24;;;;;;;10.52;7.88;;;;;17.30;100563.00;;;;5067963;28;20071;-78
2021/08/20 11:15:53;;;;;;;13.02;6.85;;;;;17.40;100570.00;;;;5068837;28;20403;-79
2021/08/20 11:18:46;;;;;;;17.77;9.20;;;;;17.30;100635.00;;;;5068488;28;20028;-78
2021/08/20 11:21:46;;;;;;;10.60;7.75;;;;;17.30;100640.00;;;;5058044;28;20131;-82
2021/08/20 11:24:21;;;;;;;18.58;8.15;;;;;17.70;100579.00;;;;5068863;28;20561;-81
2021/08/20 11:26:48;;;;;;;11.10;7.07;;;;;17.80;100639.00;;;;5067974;28;20150;-78
2021/08/20 11:29:16;;;;;;;13.50;7.35;;;;;17.90;100638.00;;;;5068070;28;20033;-79
2021/08/20 11:31:43;;;;;;;15.35;7.35;;;;;18.10;100646.00;;;;5068282;28;20037;-79
2021/08/20 11:34:10;;;;;;;8.57;6.97;;;;;17.80;100648.00;;;;5067713;28;20553;-78
2021/08/20 11:36:43;;;;;;;9.90;7.28;;;;;18.00;100604.00;;;;5067992;28;20110;-79
2021/08/20 11:39:13;;;;;;;14.15;7.72;;;;;18.70;100640.00;;;;5067793;28;20078;-80
2021/08/20 11:41:48;;;;;;;13.00;7.43;;;;;18.20;100658.00;;;;5068098;28;20028;-82
2021/08/20 11:44:16;;;;;;;12.68;7.00;;;;;18.30;100663.00;;;;5068044;28;20036;-81
2021/08/20 11:46:45;;;;;;;12.27;7.50;;;;;18.20;100671.00;;;;5067528;28;20072;-81
2021/08/20 11:49:23;;;;;;;15.02;7.68;;;;;17.90;100651.00;;;;5067827;28;20028;-81
2021/08/20 11:51:51;;;;;;;15.93;7.93;;;;;17.80;100664.00;;;;5068401;28;20483;-81
2021/08/20 11:54:17;;;;;;;25.42;10.95;;;;;18.30;100632.00;;;;5067170;28;20032;-79
2021/08/20 11:56:54;;;;;;;18.05;9.57;;;;;19.10;100635.00;;;;5067392;28;20025;-80
2021/08/20 11:59:23;;;;;;;13.32;8.07;;;;;19.20;100625.00;;;;5066465;28;20039;-79
2021/08/20 12:02:01;;;;;;;11.43;7.55;;;;;19.80;100614.00;;;;5067700;28;20044;-78
2021/08/20 12:04:28;;;;;;;20.45;9.57;;;;;20.00;100607.00;;;;5067432;28;20043;-80
2021/08/20 12:06:55;;;;;;;17.20;7.47;;;;;20.10;100627.00;;;;5067539;28;20064;-80
2021/08/20 12:09:23;;;;;;;13.80;8.18;;;;;20.20;100598.00;;;;5067236;28;20028;-80